METAR Data
IDs: Format: Raw Decoded Include TAF

Data at: 2047 UTC 23 Feb 2020

METAR for:KJAQ (Jackson/Westover Fld, CA, US)
Text:KJAQ 232035Z AUTO 30005KT 10SM CLR 14/08 A3032 RMK AO1 T01350081
Temperature: 13.5°C ( 56°F)
Dewpoint: 8.1°C ( 47°F) [RH = 70%]
Pressure (altimeter):30.32 inches Hg (1026.8 mb)
Winds:from the WNW (300 degrees) at 6 MPH (5 knots; 2.6 m/s)
Visibility:10 or more sm (16+ km)
Ceiling:at least 12,000 feet AGL
Clouds:sky clear below 12,000 feet AGL
QC Flag:automated observation with no human augmentation
Text:KJAQ 232015Z AUTO 23004KT 10SM CLR 13/08 A3033 RMK AO1 T01330080
Temperature: 13.3°C ( 56°F)
Dewpoint: 8.0°C ( 46°F) [RH = 70%]
Pressure (altimeter):30.33 inches Hg (1027.2 mb)
Winds:from the SW (230 degrees) at 5 MPH (4 knots; 2.1 m/s)
Visibility:10 or more sm (16+ km)
Ceiling:at least 12,000 feet AGL
Clouds:sky clear below 12,000 feet AGL
QC Flag:automated observation with no human augmentation
Text:KJAQ 231955Z AUTO 26006KT 250V340 10SM CLR 13/08 A3033 RMK AO1 T01310080
Temperature: 13.1°C ( 56°F)
Dewpoint: 8.0°C ( 46°F) [RH = 71%]
Pressure (altimeter):30.33 inches Hg (1027.2 mb)
Winds:from the W (260 degrees) at 7 MPH (6 knots; 3.1 m/s)
Visibility:10 or more sm (16+ km)
Ceiling:at least 12,000 feet AGL
Clouds:sky clear below 12,000 feet AGL
QC Flag:automated observation with no human augmentation